Αρχική σελίδα
METAR-TAF:

METAR-TAF

Αεροδρόμια :

Τζέντα, Σαουδική Αραβία

γεωγραφικό πλάτος: 21-42N, γεωγραφικό μήκος: 039-11E, υψόμετρο: 15 μ

Παρών καιρός

Η αναφορά έγινε 33 λεπτά πριν, στις 01:00 UTC
Άνεμος 4 kt από Β/BΔ
Θερμοκρασία 29°C
Υγρασία 66%
Πίεση 1012 hPa
Ορατότητα 10 χλμ και άνω
Δεν υπάρχουν νέφη με βάση κάτω από τα 1500 μ. και δεν υπάρχουν νέφη σωρειτομελανίτες.

METAR: OEJN 220100Z 33004KT CAVOK 29/22 Q1012 NOSIG

Χρόνος: 04:33 (01:33 UTC)

Πρόγνωση Καιρού

Η αναφορά έγινε 2 ώρες και 33 λεπτά πριν, στις 23:00 UTC
Η πρόγνωση ισχύει από τις 22 στις 00 UTC έως τις 23 στις 06 UTC
Άνεμος 3 kt από μεταβλητές κατευθύνσεις
Ορατότητα 10 χλμ και άνω
Λίγα νέφη σε ύψος 4000 πόδια
Διάσπαρτα νέφη σε ύψος 10000 πόδια
Καθιστάμενος
από 22 στις 08 UTC έως τις 22 στις 10 UTC
Άνεμος 14 kt από Δ/BΔ

TAF: OEJN 212300Z 2200/2306 VRB03KT 9999 FEW040 SCT100 BECMG 2208/2210 30014KT

Μετεωρολογικές αναφορές και προγνώσεις για περισσότερα από 4000 αεροδρόμια (δελτία METAR και TAF).

Οι διαθέσιμοι σταθμοί απεικονίζονται στο χάρτη με κίτρινες και κόκκινες κουκκίδες.

Μετακινήστε το ποντίκι πάνω από τις κουκκίδες για να δείτε το όνομα του σταθμού.

Στη συνέχεια, κάντε κλικ για να δείτε τις μετεωρολογικές αναφορές και τις προγνώσεις καιρού.

Για να αλλάξετε το χάρτη: κάντε κλικ στα πράσινα κουμπιά με τον μαύρο σταυρό για να ζουμάρετε, στο πράσινο κουμπί με την παύλα για να αφαιρέσετε το ζουμ ή στα πράσινα βέλη για να αντιπαραβάλλετε χάρτες.


METAR-TAF: